Mombaca, Brazil
Current Conditions -  °F | °C
As of 2:00 PM on Thursday 30 Oct 2014 (Local Time) from SBJU Reporting Station
Scattered Clouds Scattered Clouds  
Wind Chill: 95°   Ceiling: Unl
Heat Index: 96°   Visibility: 6mi
Dew Point: 63°   Wind: 15mph
Humidity: 34%   Direction: 110°ESE
Pressure: 29.91"   Gusts: NA
Location:  5.74°S, 39.63°W
Report Text: SBJU 301700Z 11013KT 9999 SCT020 35/17 Q1013
Loading
Personal Weather Stations






























Interactive Weather Map
Tropical Storm Tracking
New forecast layout! Learn more

10-Day Weather Forecast

Advertisements
Track Severe Weather on mobile